EFTP/TMP METAR and TAF weather

Enter ICAO airport designator
Station Type Date Time Source
EFTP METAR 2020/06/05 09:20 UTC NOAA

EFTP 050920Z 28003KT 240V320 9999 FEW005 BKN007 13/12 Q0996


Station Type Date Time Source
EFTP Decoded METAR 2020/06/05 09:20 UTC NOAA

Tampere / Pirkkala, Finland (EFTP) 61-25N 023-35E 112M
Jun 05, 2020 - 05:20 AM EDT / 2020.06.05 0920 UTC
Wind: from the W (280 degrees) at 3 MPH (3 KT) (direction variable):0
Visibility: greater than 7 mile(s):0
Sky conditions: mostly cloudy
Temperature: 55 F (13 C)
Dew Point: 53 F (12 C)
Relative Humidity: 93%
Pressure (altimeter): 29.41 in. Hg (0996 hPa)
ob: EFTP 050920Z 28003KT 240V320 9999 FEW005 BKN007 13/12 Q0996
cycle: 9

Station Type Date Time Source
EFTP TAF 2020/06/05 09:42 UTC NOAA

TAF EFTP 050826Z 0509/0609 36005KT 9999 BKN004
TEMPO 0509/0512 4000 -RA BKN012
BECMG 0512/0514 BKN020

Example: see airport list